Time,TemperatureF,DewpointF,PressureIn,WindDirection,WindDirectionDegrees,WindSpeedMPH,WindSpeedGustMPH,Humidity,HourlyPrecipIn,Conditions,Clouds,dailyrainin,SoftwareType,DateUTC
2013-07-15 00:01:00,77.0,-99.9,30.11,North,-999,-999.0,-999.0,-999,-99.99,,,-99.99,,2013-07-15 04:01:00,
2013-07-15 00:12:00,-999.0,-99.9,30.11,SE,129,12.0,14.0,-999,-99.99,,,-99.99,,2013-07-15 04:12:00,
2013-07-15 00:22:00,-999.0,-99.9,30.11,SE,135,12.0,16.0,-999,-99.99,,,-99.99,,2013-07-15 04:22:00,
2013-07-15 00:42:00,-999.0,-99.9,30.11,SE,131,11.0,14.0,-999,-99.99,,,-99.99,,2013-07-15 04:42:00,
2013-07-15 00:54:00,-999.0,-99.9,30.11,SE,129,10.0,14.0,-999,-99.99,,,-99.99,,2013-07-15 04:54:00,
2013-07-15 01:02:00,77.0,-99.9,30.11,North,-999,-999.0,-999.0,-999,-99.99,,,-99.99,,2013-07-15 05:02:00,
2013-07-15 01:12:00,-999.0,-99.9,30.11,SE,131,13.0,16.0,-999,-99.99,,,-99.99,,2013-07-15 05:12:00,
2013-07-15 01:32:00,-999.0,-99.9,30.11,SE,140,16.0,19.0,-999,-99.99,,,-99.99,,2013-07-15 05:32:00,
2013-07-15 01:43:00,-999.0,-99.9,30.11,SE,143,16.0,18.0,-999,-99.99,,,-99.99,,2013-07-15 05:43:00,
2013-07-15 01:53:00,76.0,-99.9,30.11,North,-999,-999.0,-999.0,-999,-99.99,,,-99.99,,2013-07-15 05:53:00,
2013-07-15 02:02:00,-999.0,-99.9,30.11,SE,140,15.0,18.0,-999,-99.99,,,-99.99,,2013-07-15 06:02:00,
2013-07-15 02:12:00,-999.0,-99.9,30.11,SE,146,13.0,16.0,-999,-99.99,,,-99.99,,2013-07-15 06:12:00,
2013-07-15 02:32:00,-999.0,-99.9,30.10,SSE,148,11.0,14.0,-999,-99.99,,,-99.99,,2013-07-15 06:32:00,
2013-07-15 02:42:00,77.0,-99.9,30.11,North,-999,-999.0,-999.0,-999,-99.99,,,-99.99,,2013-07-15 06:42:00,
2013-07-15 02:53:00,-999.0,-99.9,30.10,SE,144,12.0,14.0,-999,-99.99,,,-99.99,,2013-07-15 06:53:00,
2013-07-15 03:01:00,76.0,-99.9,30.10,North,-999,-999.0,-999.0,-999,-99.99,,,-99.99,,2013-07-15 07:01:00,
2013-07-15 03:11:00,-999.0,-99.9,30.09,SE,131,10.0,14.0,-999,-99.99,,,-99.99,,2013-07-15 07:11:00,
2013-07-15 03:22:00,-999.0,-99.9,30.09,SE,136,10.0,14.0,-999,-99.99,,,-99.99,,2013-07-15 07:22:00,
2013-07-15 03:44:00,77.0,-99.9,30.09,North,-999,-999.0,-999.0,-999,-99.99,,,-99.99,,2013-07-15 07:44:00,
2013-07-15 03:53:00,76.0,-99.9,30.09,North,-999,-999.0,-999.0,-999,-99.99,,,-99.99,,2013-07-15 07:53:00,
2013-07-15 04:02:00,76.0,-99.9,30.09,North,-999,-999.0,-999.0,-999,-99.99,,,-99.99,,2013-07-15 08:02:00,
2013-07-15 04:12:00,-999.0,-99.9,30.09,ESE,112,6.0,12.0,-999,-99.99,,,-99.99,,2013-07-15 08:12:00,
2013-07-15 04:32:00,-999.0,-99.9,30.09,ESE,113,7.0,10.0,-999,-99.99,,,-99.99,,2013-07-15 08:32:00,
2013-07-15 04:44:00,76.0,-99.9,30.09,North,-999,-999.0,-999.0,-999,-99.99,,,-99.99,,2013-07-15 08:44:00,
2013-07-15 04:53:00,76.0,-99.9,30.09,North,-999,-999.0,-999.0,-999,-99.99,,,-99.99,,2013-07-15 08:53:00,
2013-07-15 05:02:00,-999.0,-99.9,30.09,SE,125,8.0,11.0,-999,-99.99,,,-99.99,,2013-07-15 09:02:00,
2013-07-15 05:12:00,-999.0,-99.9,30.09,ESE,122,8.0,11.0,-999,-99.99,,,-99.99,,2013-07-15 09:12:00,
2013-07-15 05:32:00,-999.0,-99.9,30.09,ESE,120,9.0,13.0,-999,-99.99,,,-99.99,,2013-07-15 09:32:00,
2013-07-15 05:43:00,76.0,-99.9,30.09,North,-999,-999.0,-999.0,-999,-99.99,,,-99.99,,2013-07-15 09:43:00,
2013-07-15 05:53:00,-999.0,-99.9,30.09,ESE,116,8.0,13.0,-999,-99.99,,,-99.99,,2013-07-15 09:53:00,
2013-07-15 06:02:00,76.0,-99.9,30.09,North,-999,-999.0,-999.0,-999,-99.99,,,-99.99,,2013-07-15 10:02:00,
2013-07-15 06:11:00,-999.0,-99.9,30.09,ESE,119,7.0,11.0,-999,-99.99,,,-99.99,,2013-07-15 10:11:00,
2013-07-15 06:32:00,-999.0,-99.9,30.10,ESE,114,6.0,10.0,-999,-99.99,,,-99.99,,2013-07-15 10:32:00,
2013-07-15 06:43:00,-999.0,-99.9,30.10,ESE,117,8.0,12.0,-999,-99.99,,,-99.99,,2013-07-15 10:43:00,
2013-07-15 06:53:00,77.0,-99.9,30.10,North,-999,-999.0,-999.0,-999,-99.99,,,-99.99,,2013-07-15 10:53:00,
2013-07-15 07:02:00,-999.0,-99.9,30.11,ESE,110,5.0,10.0,-999,-99.99,,,-99.99,,2013-07-15 11:02:00,
2013-07-15 07:11:00,-999.0,-99.9,30.11,ESE,111,4.0,7.0,-999,-99.99,,,-99.99,,2013-07-15 11:11:00,
2013-07-15 07:32:00,77.0,-99.9,30.12,North,-999,-999.0,-999.0,-999,-99.99,,,-99.99,,2013-07-15 11:32:00,
2013-07-15 07:42:00,77.0,-99.9,30.12,North,-999,-999.0,-999.0,-999,-99.99,,,-99.99,,2013-07-15 11:42:00,
2013-07-15 07:52:00,-999.0,-99.9,30.12,ESE,107,5.0,9.0,-999,-99.99,,,-99.99,,2013-07-15 11:52:00,
2013-07-15 08:01:00,-999.0,-99.9,30.12,ESE,104,5.0,9.0,-999,-99.99,,,-99.99,,2013-07-15 12:01:00,
2013-07-15 08:33:00,-999.0,-99.9,30.13,East,100,5.0,11.0,-999,-99.99,,,-99.99,,2013-07-15 12:33:00,
2013-07-15 08:42:00,78.0,-99.9,30.12,North,-999,-999.0,-999.0,-999,-99.99,,,-99.99,,2013-07-15 12:42:00,
2013-07-15 08:53:00,-999.0,-99.9,30.13,East,101,6.0,10.0,-999,-99.99,,,-99.99,,2013-07-15 12:53:00,
2013-07-15 09:02:00,-999.0,-99.9,30.13,ESE,102,5.0,10.0,-999,-99.99,,,-99.99,,2013-07-15 13:02:00,
2013-07-15 09:22:00,-999.0,-99.9,30.13,ESE,108,5.0,9.0,-999,-99.99,,,-99.99,,2013-07-15 13:22:00,
2013-07-15 09:43:00,80.0,-99.9,30.14,North,-999,-999.0,-999.0,-999,-99.99,,,-99.99,,2013-07-15 13:43:00,
2013-07-15 10:02:00,80.0,-99.9,30.14,North,-999,-999.0,-999.0,-999,-99.99,,,-99.99,,2013-07-15 14:02:00,
2013-07-15 10:43:00,-999.0,-99.9,30.14,ESE,123,6.0,9.0,-999,-99.99,,,-99.99,,2013-07-15 14:43:00,
2013-07-15 11:02:00,-999.0,-99.9,30.14,ESE,120,5.0,10.0,-999,-99.99,,,-99.99,,2013-07-15 15:02:00,
2013-07-15 11:19:00,-999.0,-99.9,30.14,ESE,102,5.0,8.0,-999,-99.99,,,-99.99,,2013-07-15 15:19:00,
2013-07-15 11:50:00,-999.0,-99.9,30.14,ESE,110,5.0,9.0,-999,-99.99,,,-99.99,,2013-07-15 15:50:00,
2013-07-15 12:08:00,83.0,-99.9,30.14,North,-999,-999.0,-999.0,-999,-99.99,,,-99.99,,2013-07-15 16:08:00,
2013-07-15 12:33:00,-999.0,-99.9,30.14,East,86,6.0,9.0,-999,-99.99,,,-99.99,,2013-07-15 16:33:00,
2013-07-15 13:08:00,-999.0,-99.9,30.13,ENE,77,5.0,7.0,-999,-99.99,,,-99.99,,2013-07-15 17:08:00,
2013-07-15 13:23:00,-999.0,-99.9,30.13,ENE,71,4.0,7.0,-999,-99.99,,,-99.99,,2013-07-15 17:23:00,
2013-07-15 13:51:00,-999.0,-99.9,30.12,NE,53,5.0,8.0,-999,-99.99,,,-99.99,,2013-07-15 17:51:00,
2013-07-15 14:01:00,-999.0,-99.9,30.12,NE,38,4.0,7.0,-999,-99.99,,,-99.99,,2013-07-15 18:01:00,
2013-07-15 14:08:00,-999.0,-99.9,30.12,NE,38,4.0,7.0,-999,-99.99,,,-99.99,,2013-07-15 18:08:00,
2013-07-15 14:18:00,-999.0,-99.9,30.11,NE,52,4.0,6.0,-999,-99.99,,,-99.99,,2013-07-15 18:18:00,
2013-07-15 14:29:00,-999.0,-99.9,30.11,NNE,32,4.0,7.0,-999,-99.99,,,-99.99,,2013-07-15 18:29:00,
2013-07-15 14:40:00,-999.0,-99.9,30.10,ENE,59,3.0,5.0,-999,-99.99,,,-99.99,,2013-07-15 18:40:00,
2013-07-15 15:05:00,-999.0,-99.9,30.10,ENE,62,5.0,8.0,-999,-99.99,,,-99.99,,2013-07-15 19:05:00,
2013-07-15 15:12:00,-999.0,-99.9,30.10,ENE,62,5.0,8.0,-999,-99.99,,,-99.99,,2013-07-15 19:12:00,
2013-07-15 15:24:00,-999.0,-99.9,30.10,NE,43,4.0,8.0,-999,-99.99,,,-99.99,,2013-07-15 19:24:00,
2013-07-15 15:49:00,-999.0,-99.9,30.09,ENE,78,3.0,5.0,-999,-99.99,,,-99.99,,2013-07-15 19:49:00,
2013-07-15 16:07:00,86.0,-99.9,30.08,North,-999,-999.0,-999.0,-999,-99.99,,,-99.99,,2013-07-15 20:07:00,
2013-07-15 16:37:00,-999.0,-99.9,30.07,ENE,62,3.0,5.0,-999,-99.99,,,-99.99,,2013-07-15 20:37:00,
2013-07-15 16:43:00,-999.0,-99.9,30.06,NNE,23,2.0,5.0,-999,-99.99,,,-99.99,,2013-07-15 20:43:00,
2013-07-15 17:03:00,88.0,-99.9,30.06,North,-999,-999.0,-999.0,-999,-99.99,,,-99.99,,2013-07-15 21:03:00,
2013-07-15 17:13:00,87.0,-99.9,30.06,North,-999,-999.0,-999.0,-999,-99.99,,,-99.99,,2013-07-15 21:13:00,
2013-07-15 17:24:00,-999.0,-99.9,30.06,ENE,73,3.0,5.0,-999,-99.99,,,-99.99,,2013-07-15 21:24:00,
2013-07-15 18:02:00,-999.0,-99.9,30.05,ENE,59,9.0,16.0,-999,-99.99,,,-99.99,,2013-07-15 22:02:00,
2013-07-15 18:35:00,-999.0,-99.9,30.05,NNE,28,8.0,14.0,-999,-99.99,,,-99.99,,2013-07-15 22:35:00,
2013-07-15 18:54:00,84.0,-99.9,30.05,North,-999,-999.0,-999.0,-999,-99.99,,,-99.99,,2013-07-15 22:54:00,
2013-07-15 19:13:00,-999.0,-99.9,30.05,NNE,14,9.0,11.0,-999,-99.99,,,-99.99,,2013-07-15 23:13:00,
2013-07-15 19:31:00,-999.0,-99.9,30.04,North,2,8.0,11.0,-999,-99.99,,,-99.99,,2013-07-15 23:31:00,
2013-07-15 19:40:00,-999.0,-99.9,30.04,NE,47,8.0,12.0,-999,-99.99,,,-99.99,,2013-07-15 23:40:00,
2013-07-15 19:50:00,84.0,-99.9,30.05,North,-999,-999.0,-999.0,-999,-99.99,,,-99.99,,2013-07-15 23:50:00,
2013-07-15 20:03:00,83.0,-99.9,30.06,North,-999,-999.0,-999.0,-999,-99.99,,,-99.99,,2013-07-16 00:03:00,
2013-07-15 20:16:00,-999.0,-99.9,30.06,ENE,61,8.0,15.0,-999,-99.99,,,-99.99,,2013-07-16 00:16:00,
2013-07-15 20:28:00,-999.0,-99.9,30.06,ENE,64,7.0,15.0,-999,-99.99,,,-99.99,,2013-07-16 00:28:00,
2013-07-15 20:51:00,83.0,-99.9,30.07,North,-999,-999.0,-999.0,-999,-99.99,,,-99.99,,2013-07-16 00:51:00,
2013-07-15 21:11:00,-999.0,-99.9,30.08,ESE,102,7.0,13.0,-999,-99.99,,,-99.99,,2013-07-16 01:11:00,
2013-07-15 21:49:00,80.0,-99.9,30.08,North,-999,-999.0,-999.0,-999,-99.99,,,-99.99,,2013-07-16 01:49:00,
2013-07-15 22:02:00,-999.0,-99.9,30.09,SSE,149,9.0,12.0,-999,-99.99,,,-99.99,,2013-07-16 02:02:00,
2013-07-15 22:11:00,-999.0,-99.9,30.10,SE,135,10.0,13.0,-999,-99.99,,,-99.99,,2013-07-16 02:11:00,
2013-07-15 22:30:00,-999.0,-99.9,30.11,SE,142,9.0,12.0,-999,-99.99,,,-99.99,,2013-07-16 02:30:00,
2013-07-15 22:53:00,-999.0,-99.9,30.12,SE,134,8.0,9.0,-999,-99.99,,,-99.99,,2013-07-16 02:53:00,
2013-07-15 23:17:00,79.0,-99.9,30.12,North,-999,-999.0,-999.0,-999,-99.99,,,-99.99,,2013-07-16 03:17:00,
2013-07-15 23:49:00,-999.0,-99.9,30.13,SSE,164,8.0,9.0,-999,-99.99,,,-99.99,,2013-07-16 03:49:00,
2013-07-15 23:58:00,-999.0,-99.9,30.13,SSE,152,9.0,12.0,-999,-99.99,,,-99.99,,2013-07-16 03:58:00,